Time;durP1;ratioP1;P1;durP2;ratioP2;P2;SDS_P1;SDS_P2;PMS_P1;PMS_P2;Temp;Humidity;BMP_temperature;BMP_pressure;BME280_temperature;BME280_humidity;BME280_pressure;Samples;Min_cycle;Max_cycle;Signal;HPM_P1;HPM_P2
2022/02/15 10:12:05;;;;;;;11.40;10.80;;;14.20;97.30;;;;;;5066661;27;20653;-76
2022/02/15 10:14:36;;;;;;;10.50;10.10;;;15.30;92.40;;;;;;5066931;28;20443;-75
2022/02/15 10:17:03;;;;;;;10.53;9.67;;;15.10;92.70;;;;;;5067112;28;20949;-75
2022/02/15 10:19:31;;;;;;;9.60;9.07;;;14.60;93.50;;;;;;5066902;28;20794;-75
2022/02/15 10:21:58;;;;;;;9.70;9.20;;;14.00;94.50;;;;;;5066612;28;20447;-76
2022/02/15 10:24:26;;;;;;;9.70;9.30;;;14.00;94.70;;;;;;5066548;28;20451;-76
2022/02/15 10:26:58;;;;;;;9.73;9.17;;;14.20;94.60;;;;;;5066619;28;20452;-75
2022/02/15 10:29:28;;;;;;;10.20;9.70;;;13.70;94.30;;;;;;5066362;28;20447;-76
2022/02/15 10:31:56;;;;;;;10.20;9.53;;;13.10;94.90;;;;;;5066412;28;20939;-74
2022/02/15 10:34:23;;;;;;;9.43;9.03;;;12.50;96.10;;;;;;5066352;28;20938;-76
2022/02/15 10:36:59;;;;;;;10.00;9.40;;;12.60;96.30;;;;;;5066348;28;20448;-75
2022/02/15 10:39:38;;;;;;;9.83;9.27;;;12.20;96.50;;;;;;5066256;28;20714;-75
2022/02/15 10:42:07;;;;;;;9.47;9.07;;;11.90;97.70;;;;;;5066529;28;20458;-75
2022/02/15 10:45:00;;;;;;;9.87;9.47;;;11.80;98.00;;;;;;5066453;28;20454;-74
2022/02/15 10:47:29;;;;;;;10.63;10.00;;;11.50;98.50;;;;;;5066031;28;20478;-75
2022/02/15 10:49:57;;;;;;;9.60;9.20;;;11.40;98.00;;;;;;5065988;28;20618;-75
2022/02/15 10:52:24;;;;;;;9.90;9.40;;;11.20;98.10;;;;;;5066052;28;20443;-75
2022/02/15 10:54:51;;;;;;;9.90;9.30;;;11.00;98.20;;;;;;5065971;28;20450;-75
2022/02/15 10:57:18;;;;;;;10.17;9.77;;;10.70;98.40;;;;;;5066258;28;20459;-75
2022/02/15 10:59:48;;;;;;;9.70;9.27;;;10.60;98.70;;;;;;5065902;28;20980;-76
2022/02/15 11:02:20;;;;;;;9.90;9.37;;;10.50;98.50;;;;;;5065967;28;20459;-75
2022/02/15 11:04:48;;;;;;;9.63;9.13;;;10.50;99.00;;;;;;5065997;28;20794;-76
2022/02/15 11:07:16;;;;;;;10.17;9.77;;;10.60;98.90;;;;;;5065832;28;20477;-75
2022/02/15 11:09:53;;;;;;;10.27;9.57;;;10.60;99.00;;;;;;5065288;28;20478;-76
2022/02/15 11:12:25;;;;;;;10.33;9.80;;;10.50;99.20;;;;;;5055760;28;20459;-75
2022/02/15 11:14:59;;;;;;;8.70;8.30;;;10.70;99.40;;;;;;5052679;28;20456;-76
2022/02/15 11:17:26;;;;;;;8.87;8.37;;;10.90;98.70;;;;;;5052316;28;20915;-76
2022/02/15 11:20:01;;;;;;;9.47;9.07;;;10.80;98.50;;;;;;5052284;28;20451;-76
2022/02/15 11:22:27;;;;;;;9.60;9.20;;;10.70;98.50;;;;;;5052294;28;20521;-75
2022/02/15 11:24:55;;;;;;;9.80;9.33;;;10.60;98.80;;;;;;5052122;28;20454;-75
2022/02/15 11:27:23;;;;;;;9.20;8.87;;;10.60;98.90;;;;;;5051933;28;20459;-75
2022/02/15 11:29:52;;;;;;;9.07;8.60;;;10.60;99.00;;;;;;5052168;28;20488;-75
2022/02/15 11:32:29;;;;;;;9.23;8.73;;;10.60;98.90;;;;;;5052289;28;20459;-76
2022/02/15 11:34:56;;;;;;;8.93;8.63;;;10.60;99.00;;;;;;5052146;28;20455;-76
2022/02/15 11:37:25;;;;;;;8.70;8.30;;;10.60;98.60;;;;;;5051948;28;20788;-76
2022/02/15 11:40:04;;;;;;;9.40;9.10;;;10.30;99.00;;;;;;5052180;28;20806;-76
2022/02/15 11:42:41;;;;;;;9.23;8.73;;;10.30;99.10;;;;;;5052371;28;20448;-76
2022/02/15 11:45:17;;;;;;;8.67;8.37;;;10.40;99.20;;;;;;5052662;28;20880;-76
2022/02/15 11:47:46;;;;;;;9.90;9.20;;;10.40;99.30;;;;;;5051885;28;20448;-76
2022/02/15 11:50:16;;;;;;;9.50;9.10;;;10.40;99.60;;;;;;5052054;28;20495;-75
2022/02/15 11:52:43;;;;;;;10.10;9.60;;;10.40;99.60;;;;;;5051874;28;20450;-76
2022/02/15 11:55:13;;;;;;;10.67;10.17;;;10.40;99.40;;;;;;5051715;28;20715;-77
2022/02/15 11:57:41;;;;;;;9.93;9.43;;;10.40;99.00;;;;;;5051881;28;20490;-76
2022/02/15 12:00:10;;;;;;;10.57;9.87;;;10.40;99.00;;;;;;5051676;28;20455;-76
2022/02/15 12:02:37;;;;;;;9.73;9.43;;;10.40;98.90;;;;;;5051451;28;20829;-76
2022/02/15 12:05:06;;;;;;;9.60;9.20;;;10.40;98.70;;;;;;5051678;28;20448;-75
2022/02/15 12:07:34;;;;;;;9.83;9.13;;;10.50;99.00;;;;;;5051837;28;20446;-75
2022/02/15 12:10:05;;;;;;;9.40;9.00;;;10.60;98.40;;;;;;5051576;28;20492;-75
2022/02/15 12:12:32;;;;;;;9.33;8.93;;;10.70;97.10;;;;;;5051668;28;20852;-74
2022/02/15 12:15:00;;;;;;;8.50;8.13;;;10.70;96.80;;;;;;5051540;28;20448;-75
2022/02/15 12:17:28;;;;;;;9.90;9.50;;;10.90;96.70;;;;;;5051266;28;20515;-75
2022/02/15 12:19:56;;;;;;;10.37;9.53;;;11.70;96.10;;;;;;5051086;28;20792;-75
2022/02/15 12:22:26;;;;;;;9.80;9.20;;;12.30;94.70;;;;;;5050870;28;20483;-75
2022/02/15 12:24:53;;;;;;;9.73;9.13;;;12.30;93.70;;;;;;5050549;28;20459;-75
2022/02/15 12:27:20;;;;;;;10.40;9.90;;;12.10;93.80;;;;;;5051379;28;20448;-75
2022/02/15 12:29:50;;;;;;;10.60;9.93;;;11.70;94.60;;;;;;5051334;28;20455;-76
2022/02/15 12:32:22;;;;;;;10.00;9.53;;;11.70;94.90;;;;;;5051183;28;20990;-75
2022/02/15 12:34:49;;;;;;;9.43;9.03;;;11.80;95.00;;;;;;5051381;28;20479;-75
2022/02/15 12:37:18;;;;;;;10.80;10.30;;;11.90;94.80;;;;;;5051179;28;20483;-75
2022/02/15 12:39:47;;;;;;;10.37;9.87;;;12.00;94.60;;;;;;5051059;28;20476;-75
2022/02/15 12:42:14;;;;;;;10.00;9.50;;;12.10;94.50;;;;;;5050748;28;20480;-75
2022/02/15 12:44:41;;;;;;;9.83;9.33;;;12.00;94.60;;;;;;5050668;28;21224;-75
2022/02/15 12:47:09;;;;;;;9.90;9.40;;;11.80;94.90;;;;;;5050940;28;20456;-75
2022/02/15 12:49:35;;;;;;;10.20;9.70;;;11.50;95.40;;;;;;5050835;28;20448;-76
2022/02/15 12:52:02;;;;;;;10.40;9.90;;;11.30;95.80;;;;;;5050965;28;20491;-76
2022/02/15 12:54:31;;;;;;;10.50;9.90;;;11.30;95.90;;;;;;5050570;28;20452;-76
2022/02/15 12:56:59;;;;;;;10.37;9.87;;;11.20;96.30;;;;;;5050586;28;20458;-74
2022/02/15 12:59:25;;;;;;;9.77;9.40;;;11.00;96.60;;;;;;5050489;28;20798;-75
2022/02/15 13:01:59;;;;;;;9.90;9.50;;;11.10;97.10;;;;;;5050421;28;20464;-75
2022/02/15 13:04:26;;;;;;;9.17;8.77;;;11.20;97.00;;;;;;5050304;28;20475;-75
2022/02/15 13:06:54;;;;;;;10.10;9.30;;;11.20;97.20;;;;;;5050204;28;20444;-75
2022/02/15 13:09:27;;;;;;;9.80;9.40;;;11.40;97.20;;;;;;5050277;28;20462;-76
2022/02/15 13:12:00;;;;;;;8.57;8.10;;;11.60;96.70;;;;;;5050109;28;20682;-76
2022/02/15 13:14:31;;;;;;;9.77;9.37;;;11.70;96.80;;;;;;5050179;28;20460;-76
2022/02/15 13:17:02;;;;;;;11.87;11.07;;;11.60;96.80;;;;;;5050090;28;20491;-76
2022/02/15 13:19:36;;;;;;;11.00;10.30;;;11.50;97.00;;;;;;5050308;28;20448;-74
2022/02/15 13:22:10;;;;;;;11.73;10.77;;;11.20;97.40;;;;;;5050456;28;20505;-76
2022/02/15 13:24:37;;;;;;;10.97;10.10;;;11.10;98.00;;;;;;5050188;28;20448;-75
2022/02/15 13:27:05;;;;;;;10.90;10.30;;;11.00;98.50;;;;;;5050446;28;20931;-75
2022/02/15 13:29:34;;;;;;;11.30;10.63;;;11.00;98.60;;;;;;5050707;28;20463;-75
2022/02/15 13:32:03;;;;;;;11.23;10.57;;;11.10;98.40;;;;;;5050081;28;21029;-75
2022/02/15 13:34:32;;;;;;;10.60;10.00;;;11.00;98.40;;;;;;5049676;28;20456;-75
2022/02/15 13:37:00;;;;;;;10.63;10.03;;;10.90;98.70;;;;;;5050555;28;20648;-76
2022/02/15 13:39:27;;;;;;;11.13;10.43;;;10.90;98.80;;;;;;5050873;28;20457;-75
2022/02/15 13:41:55;;;;;;;10.90;9.97;;;10.60;99.60;;;;;;5050109;28;20463;-75
2022/02/15 13:44:24;;;;;;;11.67;10.97;;;10.60;99.90;;;;;;5049881;28;20454;-76
2022/02/15 13:46:51;;;;;;;10.13;9.53;;;10.20;99.90;;;;;;5049869;28;20455;-77
2022/02/15 13:49:18;;;;;;;9.70;9.30;;;10.10;99.90;;;;;;5050326;28;20448;-76
2022/02/15 13:51:45;;;;;;;10.00;9.40;;;9.80;99.90;;;;;;5049707;28;21068;-77
2022/02/15 13:54:12;;;;;;;10.13;9.73;;;9.80;99.90;;;;;;5049667;28;20459;-76
2022/02/15 13:56:39;;;;;;;9.87;9.27;;;9.70;99.90;;;;;;5049708;28;20633;-76
2022/02/15 13:59:08;;;;;;;9.23;8.80;;;9.60;99.90;;;;;;5049620;28;20452;-76
2022/02/15 14:01:37;;;;;;;8.70;8.30;;;9.40;99.90;;;;;;5049442;28;21051;-76
2022/02/15 14:04:04;;;;;;;9.77;8.83;;;9.30;99.90;;;;;;5049812;28;20452;-76
2022/02/15 14:06:31;;;;;;;10.43;9.97;;;9.20;99.90;;;;;;5049773;28;20452;-76
2022/02/15 14:08:58;;;;;;;10.43;9.97;;;9.00;99.90;;;;;;5049534;28;20455;-77
2022/02/15 14:11:25;;;;;;;9.80;9.20;;;8.90;99.90;;;;;;5049084;28;20869;-76
2022/02/15 14:13:52;;;;;;;9.97;9.60;;;8.90;99.90;;;;;;5049443;28;20955;-76
2022/02/15 14:16:21;;;;;;;10.67;10.07;;;8.80;99.90;;;;;;5049647;28;20452;-75
2022/02/15 14:18:49;;;;;;;10.07;9.57;;;9.00;99.90;;;;;;5049699;28;20456;-76
2022/02/15 14:21:16;;;;;;;10.00;9.60;;;9.10;99.90;;;;;;5049783;28;20451;-76
2022/02/15 14:23:44;;;;;;;10.37;9.93;;;9.50;99.90;;;;;;5049466;28;20455;-76
2022/02/15 14:26:13;;;;;;;9.33;8.83;;;9.80;99.90;;;;;;5049362;28;20946;-76
2022/02/15 14:28:40;;;;;;;10.03;9.57;;;10.00;99.90;;;;;;5049367;28;20459;-76
2022/02/15 14:31:07;;;;;;;10.13;9.33;;;10.20;99.90;;;;;;5049051;28;20486;-76
2022/02/15 14:33:34;;;;;;;9.80;9.40;;;10.10;99.90;;;;;;5049357;28;20508;-76
2022/02/15 14:36:03;;;;;;;10.40;10.00;;;10.30;99.90;;;;;;5049420;28;20443;-74
2022/02/15 14:38:30;;;;;;;10.40;9.90;;;10.50;99.90;;;;;;5049322;28;20463;-74
2022/02/15 14:40:57;;;;;;;10.20;9.50;;;10.70;99.90;;;;;;5049250;28;20440;-76
2022/02/15 14:43:24;;;;;;;10.47;9.73;;;10.90;99.90;;;;;;5049060;28;20737;-76
2022/02/15 14:45:51;;;;;;;11.03;10.47;;;10.70;99.90;;;;;;5049077;28;20856;-76
2022/02/15 14:48:20;;;;;;;10.70;10.10;;;10.40;99.90;;;;;;5052927;28;20500;-75
2022/02/15 14:50:47;;;;;;;9.40;8.93;;;10.10;99.90;;;;;;5053187;28;20875;-75
2022/02/15 14:53:16;;;;;;;11.50;10.90;;;10.00;99.90;;;;;;5052740;28;20454;-74
2022/02/15 14:55:42;;;;;;;10.07;9.67;;;10.20;99.90;;;;;;5052826;28;20890;-74
2022/02/15 14:58:09;;;;;;;10.20;9.80;;;10.20;99.90;;;;;;5052688;28;20925;-74
2022/02/15 15:00:37;;;;;;;9.40;9.00;;;10.10;99.90;;;;;;5052744;28;20445;-75
2022/02/15 15:03:04;;;;;;;9.67;9.07;;;10.10;99.90;;;;;;5052789;28;20476;-74
2022/02/15 15:05:31;;;;;;;10.90;10.20;;;10.00;99.90;;;;;;5052991;28;20458;-74
2022/02/15 15:07:58;;;;;;;9.60;9.20;;;10.10;99.90;;;;;;5052665;28;20448;-74
2022/02/15 15:10:27;;;;;;;11.20;10.50;;;10.00;99.90;;;;;;5052591;28;20582;-75
2022/02/15 15:12:54;;;;;;;9.60;9.30;;;10.00;99.90;;;;;;5052469;28;20855;-75
2022/02/15 15:15:21;;;;;;;10.67;10.17;;;10.00;99.90;;;;;;5052598;28;20467;-74
2022/02/15 15:17:48;;;;;;;9.80;9.30;;;10.00;99.90;;;;;;5052679;28;20444;-75
2022/02/15 15:20:15;;;;;;;9.90;9.40;;;10.00;99.90;;;;;;5052391;28;20952;-74
2022/02/15 15:22:41;;;;;;;10.10;9.50;;;9.90;99.90;;;;;;5052150;28;20449;-74
2022/02/15 15:25:10;;;;;;;10.77;10.00;;;9.80;99.90;;;;;;5052096;28;20510;-74
2022/02/15 15:27:38;;;;;;;9.40;9.10;;;9.60;99.90;;;;;;5052191;28;20452;-75
2022/02/15 15:30:07;;;;;;;9.70;9.30;;;9.50;99.90;;;;;;5052233;28;20451;-74
2022/02/15 15:32:39;;;;;;;10.67;10.17;;;9.50;99.90;;;;;;5052105;28;20587;-74
2022/02/15 15:35:07;;;;;;;10.17;9.67;;;9.40;99.90;;;;;;5052228;28;20456;-75
2022/02/15 15:37:37;;;;;;;9.80;9.40;;;9.40;99.90;;;;;;5052301;28;20479;-74
2022/02/15 15:40:05;;;;;;;10.13;9.73;;;9.40;99.90;;;;;;5052370;28;20824;-75
2022/02/15 15:42:32;;;;;;;9.50;9.10;;;9.40;99.90;;;;;;5052026;28;20448;-74
2022/02/15 15:45:00;;;;;;;10.70;10.20;;;9.40;99.90;;;;;;5051856;28;20946;-74
2022/02/15 15:47:27;;;;;;;11.00;10.60;;;9.40;99.90;;;;;;5051726;28;20454;-75
2022/02/15 15:49:54;;;;;;;10.33;9.93;;;9.40;99.90;;;;;;5051798;28;20483;-75
2022/02/15 15:52:21;;;;;;;9.57;9.17;;;9.30;99.90;;;;;;5051712;28;20542;-74
2022/02/15 15:54:48;;;;;;;10.77;10.17;;;9.30;99.90;;;;;;5051900;28;20543;-74
2022/02/15 15:57:15;;;;;;;10.17;9.77;;;9.30;99.90;;;;;;5051720;28;20484;-76
2022/02/15 15:59:42;;;;;;;10.80;10.30;;;9.20;99.90;;;;;;5051510;28;20825;-75
2022/02/15 16:02:10;;;;;;;11.23;10.60;;;9.00;99.90;;;;;;5051216;28;20765;-75
2022/02/15 16:04:37;;;;;;;11.43;10.93;;;8.90;99.90;;;;;;5051227;28;20467;-75
2022/02/15 16:07:04;;;;;;;11.00;10.20;;;8.80;99.90;;;;;;5051564;28;20448;-75
2022/02/15 16:09:30;;;;;;;9.60;9.20;;;8.70;99.90;;;;;;5051521;28;20463;-75
2022/02/15 16:11:57;;;;;;;11.37;10.53;;;8.60;99.90;;;;;;5051211;28;21006;-75
2022/02/15 16:14:24;;;;;;;10.70;10.20;;;8.40;99.90;;;;;;5051122;28;20869;-74
2022/02/15 16:16:51;;;;;;;10.20;9.80;;;8.40;99.90;;;;;;5051089;28;20448;-75
2022/02/15 16:19:19;;;;;;;9.33;9.03;;;8.40;99.90;;;;;;5051522;28;20943;-75
2022/02/15 16:21:46;;;;;;;10.63;9.90;;;8.60;99.90;;;;;;5051351;28;20437;-75
2022/02/15 16:24:12;;;;;;;9.90;9.40;;;8.70;99.90;;;;;;5051016;28;20452;-76
2022/02/15 16:26:39;;;;;;;9.53;9.13;;;8.80;99.90;;;;;;5051044;28;20479;-75
2022/02/15 16:29:06;;;;;;;10.07;9.67;;;8.90;99.90;;;;;;5050922;28;20456;-76
2022/02/15 16:31:52;;;;;;;10.90;10.40;;;8.90;99.90;;;;;;5051130;28;20480;-75
2022/02/15 16:34:22;;;;;;;10.07;9.67;;;9.00;99.90;;;;;;5051098;28;20448;-76
2022/02/15 16:36:49;;;;;;;10.53;10.10;;;8.90;99.90;;;;;;5050913;28;20543;-75
2022/02/15 16:39:16;;;;;;;10.73;10.33;;;8.70;99.90;;;;;;5051030;28;20455;-75
2022/02/15 16:41:44;;;;;;;10.50;9.90;;;8.60;99.90;;;;;;5050768;28;20452;-75
2022/02/15 16:44:13;;;;;;;10.10;9.70;;;8.40;99.90;;;;;;5050639;28;20456;-75
2022/02/15 16:46:40;;;;;;;10.30;9.90;;;8.20;99.90;;;;;;5050546;28;20451;-76
2022/02/15 16:49:07;;;;;;;10.10;9.70;;;8.10;99.90;;;;;;5050404;28;20900;-76
2022/02/15 16:51:35;;;;;;;10.73;10.13;;;7.90;99.90;;;;;;5050665;28;20836;-76
2022/02/15 16:54:02;;;;;;;9.83;9.40;;;7.80;99.90;;;;;;5050759;28;20820;-77
2022/02/15 16:56:29;;;;;;;10.20;9.70;;;7.60;99.90;;;;;;5050709;28;20861;-76
2022/02/15 16:58:55;;;;;;;9.47;9.07;;;7.50;99.90;;;;;;5053860;28;20482;-77
2022/02/15 17:01:22;;;;;;;9.37;8.87;;;7.30;99.90;;;;;;5054354;28;20863;-76
2022/02/15 17:03:49;;;;;;;9.43;9.03;;;7.20;99.90;;;;;;5055196;28;20448;-76
2022/02/15 17:06:16;;;;;;;9.10;8.70;;;7.30;99.90;;;;;;5053192;28;20547;-76
2022/02/15 17:08:45;;;;;;;10.10;9.60;;;7.30;99.90;;;;;;5050379;28;20965;-77
2022/02/15 17:11:12;;;;;;;9.73;9.20;;;7.30;99.90;;;;;;5049745;28;20479;-75
2022/02/15 17:13:39;;;;;;;8.80;8.50;;;7.40;99.90;;;;;;5049868;28;20480;-77
2022/02/15 17:16:08;;;;;;;9.10;8.70;;;7.30;99.90;;;;;;5049929;28;20452;-76
2022/02/15 17:18:35;;;;;;;10.83;10.10;;;7.30;99.90;;;;;;5050145;28;20455;-76
2022/02/15 17:21:02;;;;;;;9.33;8.83;;;7.30;99.90;;;;;;5050503;28;20974;-76
2022/02/15 17:23:29;;;;;;;9.50;8.80;;;7.30;99.90;;;;;;5050145;28;20960;-76
2022/02/15 17:25:58;;;;;;;10.57;9.77;;;7.40;99.90;;;;;;5050301;28;20592;-75
2022/02/15 17:28:25;;;;;;;9.37;8.77;;;7.50;99.90;;;;;;5050079;28;20847;-76
2022/02/15 17:30:52;;;;;;;9.70;9.20;;;7.50;99.90;;;;;;5049768;28;20455;-76
2022/02/15 17:33:19;;;;;;;9.17;8.57;;;7.50;99.90;;;;;;5050183;28;20491;-76
2022/02/15 17:35:46;;;;;;;8.93;8.50;;;7.40;99.90;;;;;;5050179;28;20459;-75
2022/02/15 17:38:12;;;;;;;8.87;8.43;;;7.40;99.90;;;;;;5049710;28;20448;-75
2022/02/15 17:40:41;;;;;;;7.00;6.70;;;7.40;99.90;;;;;;5049749;28;20957;-76
2022/02/15 17:43:10;;;;;;;9.50;8.90;;;7.40;99.90;;;;;;5049661;28;20440;-76
2022/02/15 17:45:36;;;;;;;8.87;8.47;;;7.40;99.90;;;;;;5049576;28;21028;-75
2022/02/15 17:48:03;;;;;;;8.77;8.30;;;7.40;99.90;;;;;;5049807;28;20854;-76
2022/02/15 17:50:30;;;;;;;9.10;8.50;;;7.50;99.90;;;;;;5049678;28;20455;-75
2022/02/15 17:52:57;;;;;;;9.23;8.83;;;7.40;99.90;;;;;;5049544;28;20488;-76
2022/02/15 17:55:24;;;;;;;9.43;8.93;;;7.30;99.90;;;;;;5049611;28;20656;-75
2022/02/15 17:57:52;;;;;;;9.30;8.70;;;7.20;99.90;;;;;;5049580;28;20538;-75
